Hsin-chu, Taiwan
Current Conditions -  °F | °C
As of 12:30 AM on Friday 24 Oct 2014 (Local Time) from RCTP Reporting Station
Scattered Clouds Scattered Clouds  
Wind Chill: 73°   Ceiling: Unl
Heat Index: 73°   Visibility: 6mi
Dew Point: 63°   Wind: 13mph
Humidity: 69%   Direction: 60°ENE
Pressure: 30"   Gusts: NA
Location:  24.8°N, 120.97°E
Report Text: RCTP 231630Z 06011KT 9999 FEW020 SCT100 23/17 Q1016 NOSIGRMK A3002
Loading
Personal Weather Stations






























Interactive Weather Map
Tropical Storm Tracking
New forecast layout! Learn more

10-Day Weather Forecast

Advertisements
Track Severe Weather on mobile